Time;durP1;ratioP1;P1;durP2;ratioP2;P2;SDS_P1;SDS_P2;PMS_P1;PMS_P2;Temp;Humidity;BMP_temperature;BMP_pressure;BME280_temperature;BME280_humidity;BME280_pressure;Samples;Min_cycle;Max_cycle;Signal;HPM_P1;HPM_P2
2022/01/21 00:00:38;;;;;;;;;;;;;;;;;;5134836;27;19927;-77
2022/01/21 00:03:04;;;;;;;;;;;;;;;;;;5134974;27;20451;-77
2022/01/21 00:05:29;;;;;;;;;;;;;;;;;;5134672;27;19916;-78
2022/01/21 00:07:54;;;;;;;;;;;;;;;;;;5134657;27;20326;-78
2022/01/21 00:10:20;;;;;;;;;;;;;;;;;;5134822;27;19919;-78
2022/01/21 00:12:47;;;;;;;;;;;;;;;;;;5116465;27;19937;-77
2022/01/21 00:15:12;;;;;;;;;;;;;;;;;;5134685;27;19915;-77
2022/01/21 00:17:38;;;;;;;;;;;;;;;;;;5134814;27;19922;-77
2022/01/21 00:31:01;;;;;;;;;;;;;;;;;;5116066;28;19915;-77
2022/01/21 00:33:27;;;;;;;;;;;;;;;;;;5134795;28;20010;-77
2022/01/21 00:35:52;;;;;;;;;;;;;;;;;;5116105;28;19919;-77
2022/01/21 00:38:18;;;;;;;;;;;;;;;;;;5115306;28;19950;-77
2022/01/21 00:40:43;;;;;;;;;;;;;;;;;;5134524;28;19968;-77
2022/01/21 00:45:54;;;;;;;;;;;;;;;;;;5116285;28;19922;-77
2022/01/21 00:48:20;;;;;;;;;;;;;;;;;;5115605;28;20264;-77
2022/01/21 00:50:47;;;;;;;;;;;;;;;;;;5116354;28;19960;-77
2022/01/21 00:53:12;;;;;;;;;;;;;;;;;;5133657;27;19922;-77
2022/01/21 00:55:38;;;;;;;;;;;;;;;;;;5138368;27;19915;-77
2022/01/21 00:58:03;;;;;;;;;;;;;;;;;;5119953;27;19920;-77
2022/01/21 01:00:29;;;;;;;;;;;;;;;;;;5138384;27;19915;-77
2022/01/21 01:02:54;;;;;;;;;;;;;;;;;;5137642;27;19915;-77
2022/01/21 01:05:19;;;;;;;;;;;;;;;;;;5120040;27;20310;-77
2022/01/21 01:07:45;;;;;;;;;;;;;;;;;;5119999;27;19911;-77
2022/01/21 01:10:17;;;;;;;;;;;;;;;;;;5119904;27;19916;-77
2022/01/21 01:12:57;;;;;;;;;;;;;;;;;;5138206;27;19926;-76
2022/01/21 01:20:51;;;;;;;;;;;;;;;;;;5119737;27;19919;-77
2022/01/21 01:28:29;;;;;;;;;;;;;;;;;;5119728;27;19951;-78
2022/01/21 01:30:54;;;;;;;;;;;;;;;;;;5137961;27;19949;-77
2022/01/21 01:33:24;;;;;;;;;;;;;;;;;;5137875;27;20433;-78
2022/01/21 01:35:50;;;;;;;;;;;;;;;;;;5119711;27;20288;-77
2022/01/21 01:41:16;;;;;;;;;;;;;;;;;;5084791;27;19955;-77
2022/01/21 01:49:31;;;;;;;;;;;;;;;;;;5118878;27;19950;-77
2022/01/21 01:51:58;;;;;;;;;;;;;;;;;;5119152;27;19915;-77
2022/01/21 01:54:25;;;;;;;;;;;;;;;;;;5118847;27;19919;-77
2022/01/21 01:56:52;;;;;;;;;;;;;;;;;;5137380;27;20002;-77
2022/01/21 01:59:18;;;;;;;;;;;;;;;;;;5118858;27;20377;-77
2022/01/21 02:01:51;;;;;;;;;;;;;;;;;;5118996;27;19927;-77
2022/01/21 02:04:16;;;;;;;;;;;;;;;;;;5137318;27;19954;-77
2022/01/21 02:06:41;;;;;;;;;;;;;;;;;;5117443;27;19965;-77
2022/01/21 02:09:06;;;;;;;;;;;;;;;;;;5137202;27;19960;-77
2022/01/21 02:11:32;;;;;;;;;;;;;;;;;;5118785;27;19927;-77
2022/01/21 02:14:00;;;;;;;;;;;;;;;;;;5136992;27;19916;-77
2022/01/21 02:21:39;;;;;;;;;;;;;;;;;;5118149;27;19955;-77
2022/01/21 02:24:10;;;;;;;;;;;;;;;;;;5117763;27;19920;-77
2022/01/21 02:26:36;;;;;;;;;;;;;;;;;;5118278;27;20296;-77
2022/01/21 02:29:03;;;;;;;;;;;;;;;;;;5136816;27;19915;-77
2022/01/21 02:31:29;;;;;;;;;;;;;;;;;;5118410;27;20487;-77
2022/01/21 02:33:55;;;;;;;;;;;;;;;;;;5118324;27;19931;-77
2022/01/21 02:36:20;;;;;;;;;;;;;;;;;;5118376;27;19915;-77
2022/01/21 02:38:45;;;;;;;;;;;;;;;;;;5117320;27;19915;-77
2022/01/21 02:41:11;;;;;;;;;;;;;;;;;;5136637;27;19919;-77
2022/01/21 02:43:36;;;;;;;;;;;;;;;;;;5118581;27;19954;-77
2022/01/21 02:46:06;;;;;;;;;;;;;;;;;;5100553;27;19916;-77
2022/01/21 02:48:35;;;;;;;;;;;;;;;;;;5136209;27;19915;-77
2022/01/21 02:51:01;;;;;;;;;;;;;;;;;;5117642;27;19915;-77
2022/01/21 02:53:39;;;;;;;;;;;;;;;;;;5117506;27;19922;-77
2022/01/21 02:56:05;;;;;;;;;;;;;;;;;;5101091;27;19916;-76
2022/01/21 02:58:31;;;;;;;;;;;;;;;;;;5117623;27;20048;-77
2022/01/21 03:00:57;;;;;;;;;;;;;;;;;;5117580;27;20023;-77
2022/01/21 03:03:23;;;;;;;;;;;;;;;;;;5136320;27;19955;-77
2022/01/21 03:05:48;;;;;;;;;;;;;;;;;;5117101;27;19922;-77
2022/01/21 03:08:13;;;;;;;;;;;;;;;;;;5117612;27;19944;-77
2022/01/21 03:10:39;;;;;;;;;;;;;;;;;;5117796;27;20296;-77
2022/01/21 03:13:04;;;;;;;;;;;;;;;;;;5136095;27;19968;-77
2022/01/21 03:15:29;;;;;;;;;;;;;;;;;;5137228;27;19915;-79
2022/01/21 03:17:55;;;;;;;;;;;;;;;;;;5134090;27;19916;-76
2022/01/21 03:20:20;;;;;;;;;;;;;;;;;;5117207;27;19915;-76
2022/01/21 03:22:45;;;;;;;;;;;;;;;;;;5100368;27;19919;-76
2022/01/21 03:25:11;;;;;;;;;;;;;;;;;;5117108;27;20002;-76
2022/01/21 03:27:36;;;;;;;;;;;;;;;;;;5117122;27;19916;-77
2022/01/21 03:30:04;;;;;;;;;;;;;;;;;;5116432;27;20013;-76
2022/01/21 03:32:37;;;;;;;;;;;;;;;;;;5117111;27;19941;-77
2022/01/21 03:35:03;;;;;;;;;;;;;;;;;;5135284;27;19919;-76
2022/01/21 03:37:29;;;;;;;;;;;;;;;;;;5116843;27;20380;-76
2022/01/21 03:39:55;;;;;;;;;;;;;;;;;;5116751;27;19968;-76
2022/01/21 03:42:20;;;;;;;;;;;;;;;;;;5135185;27;20265;-76
2022/01/21 03:44:46;;;;;;;;;;;;;;;;;;5116953;27;19967;-76
2022/01/21 03:47:11;;;;;;;;;;;;;;;;;;5116876;27;19915;-77
2022/01/21 03:49:40;;;;;;;;;;;;;;;;;;5099917;27;19920;-77
2022/01/21 03:52:06;;;;;;;;;;;;;;;;;;5116779;27;19915;-76
2022/01/21 03:54:32;;;;;;;;;;;;;;;;;;5116937;27;19922;-75
2022/01/21 03:56:57;;;;;;;;;;;;;;;;;;5116567;27;20022;-75
2022/01/21 03:59:23;;;;;;;;;;;;;;;;;;5135161;27;19937;-76
2022/01/21 04:01:48;;;;;;;;;;;;;;;;;;5115840;27;20285;-76
2022/01/21 04:04:14;;;;;;;;;;;;;;;;;;5135056;27;20418;-76
2022/01/21 04:06:40;;;;;;;;;;;;;;;;;;5116531;27;19921;-76
2022/01/21 04:09:05;;;;;;;;;;;;;;;;;;5116776;27;19915;-76
2022/01/21 04:11:31;;;;;;;;;;;;;;;;;;5116780;27;19916;-76
2022/01/21 04:13:56;;;;;;;;;;;;;;;;;;5116416;28;19915;-76
2022/01/21 04:16:22;;;;;;;;;;;;;;;;;;5134856;27;19915;-76
2022/01/21 04:18:48;;;;;;;;;;;;;;;;;;5115759;28;20272;-76
2022/01/21 04:21:14;;;;;;;;;;;;;;;;;;5116287;28;19954;-76
2022/01/21 04:23:40;;;;;;;;;;;;;;;;;;5114033;28;19915;-76
2022/01/21 04:26:08;;;;;;;;;;;;;;;;;;5113829;28;19961;-76
2022/01/21 04:28:33;;;;;;;;;;;;;;;;;;5112649;28;19966;-76
2022/01/21 04:31:02;;;;;;;;;;;;;;;;;;5113760;28;20058;-76
2022/01/21 04:33:34;;;;;;;;;;;;;;;;;;5114143;28;20469;-76
2022/01/21 04:36:02;;;;;;;;;;;;;;;;;;5113213;28;19923;-76
2022/01/21 04:38:29;;;;;;;;;;;;;;;;;;5115505;28;19922;-76
2022/01/21 04:47:13;;;;;;;;;;;;;;;;;;5134608;28;19926;-76
2022/01/21 04:49:10;;;;;;;;;;;;;;;;;;5112322;28;19924;-76
2022/01/21 04:51:41;;;;;;;;;;;;;;;;;;5112915;28;20053;-76
2022/01/21 04:54:08;;;;;;;;;;;;;;;;;;5112958;28;20308;-76
2022/01/21 04:56:37;;;;;;;;;;;;;;;;;;5111685;28;20296;-76
2022/01/21 04:59:04;;;;;;;;;;;;;;;;;;5113706;28;20023;-76
2022/01/21 05:01:30;;;;;;;;;;;;;;;;;;5112482;28;19919;-76
2022/01/21 05:03:56;;;;;;;;;;;;;;;;;;5111689;28;20011;-76
2022/01/21 05:06:22;;;;;;;;;;;;;;;;;;5112366;28;19915;-76
2022/01/21 05:08:53;;;;;;;;;;;;;;;;;;5112669;28;19920;-76
2022/01/21 05:11:18;;;;;;;;;;;;;;;;;;5112662;28;19915;-76
2022/01/21 05:13:55;;;;;;;;;;;;;;;;;;5112211;28;19923;-76
2022/01/21 05:16:38;;;;;;;;;;;;;;;;;;5113690;28;19976;-76
2022/01/21 05:19:14;;;;;;;;;;;;;;;;;;5112503;28;19916;-76
2022/01/21 05:21:50;;;;;;;;;;;;;;;;;;5096926;28;20018;-76
2022/01/21 05:24:20;;;;;;;;;;;;;;;;;;5112536;28;19916;-76
2022/01/21 05:26:54;;;;;;;;;;;;;;;;;;5112226;28;19922;-76
2022/01/21 05:29:25;;;;;;;;;;;;;;;;;;5112113;28;19969;-76
2022/01/21 05:31:58;;;;;;;;;;;;;;;;;;5112118;28;19977;-76
2022/01/21 05:34:31;;;;;;;;;;;;;;;;;;5112691;28;19969;-76
2022/01/21 05:37:10;;;;;;;;;;;;;;;;;;5111456;28;19949;-76
2022/01/21 05:39:45;;;;;;;;;;;;;;;;;;5112997;28;19926;-76
2022/01/21 05:42:20;;;;;;;;;;;;;;;;;;5116033;28;20353;-76
2022/01/21 05:48:23;;;;;;;;;;;;;;;;;;5096169;28;20147;-77
2022/01/21 05:51:09;;;;;;;;;;;;;;;;;;5075022;28;20014;-76
2022/01/21 05:53:47;;;;;;;;;;;;;;;;;;5098737;28;19916;-76
2022/01/21 05:56:24;;;;;;;;;;;;;;;;;;5098608;28;20377;-76
2022/01/21 05:58:57;;;;;;;;;;;;;;;;;;5098683;28;20317;-76
2022/01/21 06:01:22;;;;;;;;;;;;;;;;;;5098424;28;20007;-76
2022/01/21 06:03:49;;;;;;;;;;;;;;;;;;5098607;28;19919;-76
2022/01/21 06:06:15;;;;;;;;;;;;;;;;;;5098343;28;19916;-76
2022/01/21 06:08:40;;;;;;;;;;;;;;;;;;5106399;27;19916;-76
2022/01/21 06:11:07;;;;;;;;;;;;;;;;;;5118886;27;19980;-76
2022/01/21 06:13:34;;;;;;;;;;;;;;;;;;5137373;27;20250;-76
2022/01/21 06:15:59;;;;;;;;;;;;;;;;;;5137305;27;19915;-76
2022/01/21 06:18:25;;;;;;;;;;;;;;;;;;5136236;27;20011;-76
2022/01/21 06:20:50;;;;;;;;;;;;;;;;;;5136798;27;21822;-76
2022/01/21 06:23:15;;;;;;;;;;;;;;;;;;5137167;27;20284;-76
2022/01/21 06:25:41;;;;;;;;;;;;;;;;;;5136689;27;19915;-76
2022/01/21 06:28:07;;;;;;;;;;;;;;;;;;5136779;27;19916;-76
2022/01/21 06:30:32;;;;;;;;;;;;;;;;;;5136877;27;19915;-76
2022/01/21 06:32:57;;;;;;;;;;;;;;;;;;5137156;27;20014;-76
2022/01/21 06:35:22;;;;;;;;;;;;;;;;;;5136939;27;20130;-76
2022/01/21 06:37:49;;;;;;;;;;;;;;;;;;5137274;27;20368;-77
2022/01/21 06:40:17;;;;;;;;;;;;;;;;;;5119497;27;20331;-77
2022/01/21 06:42:43;;;;;;;;;;;;;;;;;;5137589;27;20043;-77
2022/01/21 06:45:08;;;;;;;;;;;;;;;;;;5118685;27;19932;-78
2022/01/21 06:47:33;;;;;;;;;;;;;;;;;;5137466;27;19921;-78
2022/01/21 06:49:59;;;;;;;;;;;;;;;;;;5136727;27;20285;-77
2022/01/21 06:52:26;;;;;;;;;;;;;;;;;;5117751;27;20326;-76
2022/01/21 06:54:51;;;;;;;;;;;;;;;;;;5117336;27;19923;-75
2022/01/21 06:57:16;;;;;;;;;;;;;;;;;;5137814;27;19916;-78
2022/01/21 06:59:41;;;;;;;;;;;;;;;;;;5137615;27;19919;-78
2022/01/21 07:02:07;;;;;;;;;;;;;;;;;;5137892;27;19926;-82
2022/01/21 07:04:33;;;;;;;;;;;;;;;;;;5137677;27;19915;-77
2022/01/21 07:07:00;;;;;;;;;;;;;;;;;;5136387;27;19916;-79
2022/01/21 07:09:26;;;;;;;;;;;;;;;;;;5119877;27;20014;-78
2022/01/21 07:11:51;;;;;;;;;;;;;;;;;;5138761;27;20292;-78
2022/01/21 07:14:17;;;;;;;;;;;;;;;;;;5138669;27;19915;-77
2022/01/21 07:16:42;;;;;;;;;;;;;;;;;;5136916;27;20394;-77
2022/01/21 07:19:07;;;;;;;;;;;;;;;;;;5135443;27;19922;-77
2022/01/21 07:21:33;;;;;;;;;;;;;;;;;;5134726;27;19958;-77
2022/01/21 07:23:58;;;;;;;;;;;;;;;;;;5137484;27;19915;-77
2022/01/21 07:26:23;;;;;;;;;;;;;;;;;;5135200;27;19919;-76
2022/01/21 07:28:49;;;;;;;;;;;;;;;;;;5135261;27;20416;-77
2022/01/21 07:31:14;;;;;;;;;;;;;;;;;;5135542;27;19916;-77
2022/01/21 07:33:39;;;;;;;;;;;;;;;;;;5135377;27;20037;-77
2022/01/21 07:36:05;;;;;;;;;;;;;;;;;;5135631;27;19948;-77
2022/01/21 07:38:30;;;;;;;;;;;;;;;;;;5116849;27;20013;-77
2022/01/21 07:40:56;;;;;;;;;;;;;;;;;;5135351;27;19926;-77
2022/01/21 07:43:21;;;;;;;;;;;;;;;;;;5117043;27;19915;-77
2022/01/21 07:45:46;;;;;;;;;;;;;;;;;;5134775;27;19915;-77
2022/01/21 07:48:12;;;;;;;;;;;;;;;;;;5134232;27;19915;-77
2022/01/21 07:50:37;;;;;;;;;;;;;;;;;;5135282;27;19919;-77
2022/01/21 07:53:03;;;;;;;;;;;;;;;;;;5135320;27;19915;-77
2022/01/21 07:55:29;;;;;;;;;;;;;;;;;;5135323;27;19922;-77
2022/01/21 07:57:54;;;;;;;;;;;;;;;;;;5134897;27;19915;-77
2022/01/21 08:00:19;;;;;;;;;;;;;;;;;;5134183;27;19916;-76
2022/01/21 08:02:45;;;;;;;;;;;;;;;;;;5135141;27;20018;-76
2022/01/21 08:05:11;;;;;;;;;;;;;;;;;;5135393;27;19915;-77
2022/01/21 08:07:36;;;;;;;;;;;;;;;;;;5135987;27;20468;-78
2022/01/21 08:10:02;;;;;;;;;;;;;;;;;;5117990;27;19915;-78
2022/01/21 08:12:27;;;;;;;;;;;;;;;;;;5135485;27;20011;-78
2022/01/21 08:14:52;;;;;;;;;;;;;;;;;;5116293;27;19923;-78
2022/01/21 08:17:18;;;;;;;;;;;;;;;;;;5134785;27;19915;-77
2022/01/21 08:19:43;;;;;;;;;;;;;;;;;;5135056;27;20031;-76
2022/01/21 08:22:08;;;;;;;;;;;;;;;;;;5134656;27;19927;-75
2022/01/21 08:24:34;;;;;;;;;;;;;;;;;;5115790;27;19930;-75
2022/01/21 08:26:59;;;;;;;;;;;;;;;;;;5113438;28;19916;-74
2022/01/21 08:29:25;;;;;;;;;;;;;;;;;;5114303;28;19916;-76
2022/01/21 08:31:50;;;;;;;;;;;;;;;;;;5113940;28;19915;-75
2022/01/21 08:34:15;;;;;;;;;;;;;;;;;;5113886;28;19916;-76
2022/01/21 08:36:41;;;;;;;;;;;;;;;;;;5106548;28;19915;-78
2022/01/21 08:39:06;;;;;;;;;;;;;;;;;;5134545;27;19915;-76
2022/01/21 08:41:32;;;;;;;;;;;;;;;;;;5134970;28;20335;-75
2022/01/21 08:43:58;;;;;;;;;;;;;;;;;;5134657;28;19915;-75
2022/01/21 08:46:23;;;;;;;;;;;;;;;;;;5134573;28;19939;-75
2022/01/21 08:48:48;;;;;;;;;;;;;;;;;;5134286;27;19920;-75
2022/01/21 08:51:20;;;;;;;;;;;;;;;;;;5134687;28;20253;-74
2022/01/21 08:53:46;;;;;;;;;;;;;;;;;;5134576;28;19915;-74
2022/01/21 08:56:13;;;;;;;;;;;;;;;;;;5134625;28;19922;-74
2022/01/21 08:58:39;;;;;;;;;;;;;;;;;;5134419;27;19938;-74
2022/01/21 09:01:05;;;;;;;;;;;;;;;;;;5133661;28;20291;-74
2022/01/21 09:03:30;;;;;;;;;;;;;;;;;;5134529;28;20010;-75
2022/01/21 09:05:56;;;;;;;;;;;;;;;;;;5134506;28;19998;-74
2022/01/21 09:08:23;;;;;;;;;;;;;;;;;;5134213;27;19915;-74
2022/01/21 09:10:52;;;;;;;;;;;;;;;;;;5134310;28;19916;-73
2022/01/21 09:13:19;;;;;;;;;;;;;;;;;;5134228;28;19916;-73
2022/01/21 09:15:44;;;;;;;;;;;;;;;;;;5136496;27;19926;-73
2022/01/21 09:18:10;;;;;;;;;;;;;;;;;;5138149;27;19919;-73
2022/01/21 09:20:36;;;;;;;;;;;;;;;;;;5138248;27;19916;-73
2022/01/21 09:23:02;;;;;;;;;;;;;;;;;;5138113;27;20025;-73
2022/01/21 09:25:27;;;;;;;;;;;;;;;;;;5137882;27;19972;-73
2022/01/21 09:27:53;;;;;;;;;;;;;;;;;;5138005;27;19923;-74
2022/01/21 09:30:18;;;;;;;;;;;;;;;;;;5137294;27;19927;-73
2022/01/21 09:32:44;;;;;;;;;;;;;;;;;;5137737;27;19919;-73
2022/01/21 09:35:10;;;;;;;;;;;;;;;;;;5137877;27;20396;-73
2022/01/21 09:37:35;;;;;;;;;;;;;;;;;;5137763;27;20249;-73
2022/01/21 09:40:01;;;;;;;;;;;;;;;;;;5137326;27;19915;-73
2022/01/21 09:42:26;;;;;;;;;;;;;;;;;;5137381;27;19926;-73
2022/01/21 09:44:52;;;;;;;;;;;;;;;;;;5137622;27;20361;-74
2022/01/21 09:47:19;;;;;;;;;;;;;;;;;;5137719;27;20028;-74
2022/01/21 09:49:44;;;;;;;;;;;;;;;;;;5137169;27;19923;-74
2022/01/21 09:52:11;;;;;;;;;;;;;;;;;;5137218;27;19915;-73
2022/01/21 09:54:37;;;;;;;;;;;;;;;;;;5137428;27;19960;-74
2022/01/21 09:57:04;;;;;;;;;;;;;;;;;;5137314;27;19920;-73
2022/01/21 09:59:32;;;;;;;;;;;;;;;;;;5137487;27;19923;-73
2022/01/21 10:01:59;;;;;;;;;;;;;;;;;;5137197;27;19919;-73
2022/01/21 10:04:29;;;;;;;;;;;;;;;;;;5137427;27;19926;-74
2022/01/21 10:06:55;;;;;;;;;;;;;;;;;;5137281;27;19919;-73
2022/01/21 10:09:21;;;;;;;;;;;;;;;;;;5137145;27;19915;-73
2022/01/21 10:11:49;;;;;;;;;;;;;;;;;;5118736;27;20365;-73
2022/01/21 10:14:16;;;;;;;;;;;;;;;;;;5137163;27;19927;-73
2022/01/21 10:16:45;;;;;;;;;;;;;;;;;;5136334;27;20018;-73
2022/01/21 10:19:11;;;;;;;;;;;;;;;;;;5136946;27;19972;-73
2022/01/21 10:21:38;;;;;;;;;;;;;;;;;;5137083;27;19919;-74
2022/01/21 10:24:13;;;;;;;;;;;;;;;;;;5137119;27;19916;-74
2022/01/21 10:26:49;;;;;;;;;;;;;;;;;;5135707;27;19915;-74
2022/01/21 10:29:15;;;;;;;;;;;;;;;;;;5136506;27;20326;-74
2022/01/21 10:32:10;;;;;;;;;;;;;;;;;;5136932;27;19915;-74
2022/01/21 10:34:40;;;;;;;;;;;;;;;;;;5114870;27;19922;-77
2022/01/21 10:37:34;;;;;;;;;;;;;;;;;;5136756;27;19916;-77
2022/01/21 10:40:02;;;;;;;;;;;;;;;;;;5138499;27;19923;-77
2022/01/21 10:42:28;;;;;;;;;;;;;;;;;;5137116;27;19927;-77
2022/01/21 10:44:53;;;;;;;;;;;;;;;;;;5118509;27;19919;-76
2022/01/21 10:47:24;;;;;;;;;;;;;;;;;;5136595;27;19946;-77
2022/01/21 10:50:00;;;;;;;;;;;;;;;;;;5136124;27;19927;-77
2022/01/21 10:52:33;;;;;;;;;;;;;;;;;;5136109;27;19971;-77
2022/01/21 10:54:59;;;;;;;;;;;;;;;;;;5136767;27;19916;-77
2022/01/21 10:57:25;;;;;;;;;;;;;;;;;;5137723;27;19926;-78
2022/01/21 11:00:00;;;;;;;;;;;;;;;;;;5135902;27;19968;-77
2022/01/21 11:02:29;;;;;;;;;;;;;;;;;;5137172;27;19920;-77
2022/01/21 11:04:56;;;;;;;;;;;;;;;;;;5136554;27;19919;-77
2022/01/21 11:07:40;;;;;;;;;;;;;;;;;;5137485;27;20290;-78
2022/01/21 11:10:06;;;;;;;;;;;;;;;;;;5140599;27;19916;-80
2022/01/21 11:12:32;;;;;;;;;;;;;;;;;;5140639;27;19938;-80
2022/01/21 11:14:59;;;;;;;;;;;;;;;;;;5142287;27;20293;-79
2022/01/21 11:17:25;;;;;;;;;;;;;;;;;;5144421;27;19921;-79
2022/01/21 11:20:23;;;;;;;;;;;;;;;;;;5144063;27;20309;-78
2022/01/21 11:22:56;;;;;;;;;;;;;;;;;;5103655;27;19982;-78
2022/01/21 11:25:41;;;;;;;;;;;;;;;;;;5139601;27;19968;-77
2022/01/21 11:28:06;;;;;;;;;;;;;;;;;;5136648;27;19915;-77
2022/01/21 11:30:32;;;;;;;;;;;;;;;;;;5135637;27;20246;-76
2022/01/21 11:32:57;;;;;;;;;;;;;;;;;;5135620;27;19923;-76
2022/01/21 11:35:23;;;;;;;;;;;;;;;;;;5135310;27;19915;-77
2022/01/21 11:37:48;;;;;;;;;;;;;;;;;;5135048;27;20010;-78
2022/01/21 11:40:13;;;;;;;;;;;;;;;;;;5136222;27;19926;-77
2022/01/21 11:42:39;;;;;;;;;;;;;;;;;;5136097;27;20048;-78
2022/01/21 11:45:18;;;;;;;;;;;;;;;;;;5116639;27;20272;-77
2022/01/21 11:48:01;;;;;;;;;;;;;;;;;;5116849;27;20368;-77
2022/01/21 11:50:29;;;;;;;;;;;;;;;;;;5135297;27;20272;-77
2022/01/21 11:52:54;;;;;;;;;;;;;;;;;;5135219;27;19926;-78
2022/01/21 11:55:33;;;;;;;;;;;;;;;;;;5136056;27;19919;-77
2022/01/21 11:58:10;;;;;;;;;;;;;;;;;;5136562;27;19922;-76
2022/01/21 12:00:35;;;;;;;;;;;;;;;;;;5135205;27;19960;-76
2022/01/21 12:03:00;;;;;;;;;;;;;;;;;;5135026;27;19923;-76
2022/01/21 12:05:29;;;;;;;;;;;;;;;;;;5116644;27;19915;-77
2022/01/21 12:07:54;;;;;;;;;;;;;;;;;;5135009;27;20002;-77
2022/01/21 12:10:23;;;;;;;;;;;;;;;;;;5135039;27;20369;-77
2022/01/21 12:12:54;;;;;;;;;;;;;;;;;;5134956;27;19919;-77
2022/01/21 12:15:21;;;;;;;;;;;;;;;;;;5134681;27;20013;-77
2022/01/21 12:17:52;;;;;;;;;;;;;;;;;;5116602;27;19964;-77
2022/01/21 12:20:17;;;;;;;;;;;;;;;;;;5134975;27;19976;-77
2022/01/21 12:22:43;;;;;;;;;;;;;;;;;;5116367;28;20381;-77
2022/01/21 12:25:10;;;;;;;;;;;;;;;;;;5134718;27;20014;-77
2022/01/21 12:27:36;;;;;;;;;;;;;;;;;;5134575;27;19959;-77
2022/01/21 12:30:16;;;;;;;;;;;;;;;;;;5134741;28;19919;-77
2022/01/21 12:32:49;;;;;;;;;;;;;;;;;;5125324;28;19919;-77
2022/01/21 12:35:33;;;;;;;;;;;;;;;;;;5125228;28;20019;-77
2022/01/21 12:40:52;;;;;;;;;;;;;;;;;;5125026;28;19916;-77
2022/01/21 12:43:36;;;;;;;;;;;;;;;;;;5123846;28;19923;-77
2022/01/21 12:46:03;;;;;;;;;;;;;;;;;;5132684;28;20319;-77
2022/01/21 12:48:34;;;;;;;;;;;;;;;;;;5134414;28;19916;-78
2022/01/21 12:56:52;;;;;;;;;;;;;;;;;;5138176;27;20040;-77
2022/01/21 12:59:22;;;;;;;;;;;;;;;;;;5138337;27;19915;-77
2022/01/21 13:01:48;;;;;;;;;;;;;;;;;;5137491;27;20378;-77
2022/01/21 13:04:20;;;;;;;;;;;;;;;;;;5120270;27;20018;-77
2022/01/21 13:06:54;;;;;;;;;;;;;;;;;;5138495;27;19915;-77
2022/01/21 13:09:23;;;;;;;;;;;;;;;;;;5138372;27;19915;-77
2022/01/21 13:11:53;;;;;;;;;;;;;;;;;;5138356;27;19916;-77
2022/01/21 13:16:55;;;;;;;;;;;;;;;;;;5119942;27;19919;-77
2022/01/21 13:19:20;;;;;;;;;;;;;;;;;;5119959;27;20361;-79
2022/01/21 13:21:46;;;;;;;;;;;;;;;;;;5132508;27;19958;-77
2022/01/21 13:24:29;;;;;;;;;;;;;;;;;;5135183;27;20028;-77
2022/01/21 13:26:55;;;;;;;;;;;;;;;;;;5120542;27;20281;-76
2022/01/21 13:29:27;;;;;;;;;;;;;;;;;;5138004;27;19945;-76
2022/01/21 13:31:55;;;;;;;;;;;;;;;;;;5138003;27;20406;-76
2022/01/21 13:34:26;;;;;;;;;;;;;;;;;;5137941;27;19921;-77
2022/01/21 13:36:52;;;;;;;;;;;;;;;;;;5137513;27;20361;-76
2022/01/21 13:39:19;;;;;;;;;;;;;;;;;;5137862;27;19940;-77
2022/01/21 13:41:50;;;;;;;;;;;;;;;;;;5136930;27;19923;-77
2022/01/21 13:44:34;;;;;;;;;;;;;;;;;;5119188;27;20002;-77
2022/01/21 13:47:01;;;;;;;;;;;;;;;;;;5119132;27;19921;-76
2022/01/21 13:49:27;;;;;;;;;;;;;;;;;;5137448;27;19923;-76
2022/01/21 13:51:59;;;;;;;;;;;;;;;;;;5119019;27;19920;-77
2022/01/21 13:54:43;;;;;;;;;;;;;;;;;;5137292;27;20431;-76
2022/01/21 13:57:09;;;;;;;;;;;;;;;;;;5119020;27;20380;-76
2022/01/21 13:59:42;;;;;;;;;;;;;;;;;;5137413;27;19915;-76
2022/01/21 14:02:17;;;;;;;;;;;;;;;;;;5136893;27;19919;-76
2022/01/21 14:04:53;;;;;;;;;;;;;;;;;;5119119;27;20334;-77
2022/01/21 14:07:22;;;;;;;;;;;;;;;;;;5137174;27;19916;-76
2022/01/21 14:09:47;;;;;;;;;;;;;;;;;;5137355;27;20014;-76
2022/01/21 14:12:13;;;;;;;;;;;;;;;;;;5137247;27;20013;-77
2022/01/21 14:14:38;;;;;;;;;;;;;;;;;;5137290;27;19915;-77
2022/01/21 14:17:04;;;;;;;;;;;;;;;;;;5136580;27;19919;-77
2022/01/21 14:19:29;;;;;;;;;;;;;;;;;;5136994;27;20062;-77
2022/01/21 14:22:02;;;;;;;;;;;;;;;;;;5136569;27;19919;-77
2022/01/21 14:24:28;;;;;;;;;;;;;;;;;;5137043;27;19923;-77
2022/01/21 14:26:54;;;;;;;;;;;;;;;;;;5128918;27;20300;-77
2022/01/21 14:29:30;;;;;;;;;;;;;;;;;;5127215;27;20288;-77
2022/01/21 14:32:00;;;;;;;;;;;;;;;;;;5117390;27;19916;-77
2022/01/21 14:34:27;;;;;;;;;;;;;;;;;;5136760;27;20279;-77
2022/01/21 14:37:03;;;;;;;;;;;;;;;;;;5136257;27;19961;-77
2022/01/21 14:39:32;;;;;;;;;;;;;;;;;;5109063;27;19923;-77
2022/01/21 14:41:58;;;;;;;;;;;;;;;;;;5125303;27;20377;-77
2022/01/21 14:44:37;;;;;;;;;;;;;;;;;;5125713;27;19926;-77
2022/01/21 14:47:19;;;;;;;;;;;;;;;;;;5133585;27;19915;-77
2022/01/21 14:49:54;;;;;;;;;;;;;;;;;;5135770;27;20397;-77
2022/01/21 14:54:51;;;;;;;;;;;;;;;;;;5136612;27;19915;-77
2022/01/21 14:57:17;;;;;;;;;;;;;;;;;;5139246;27;20006;-77
2022/01/21 14:59:55;;;;;;;;;;;;;;;;;;5124964;27;19969;-78
2022/01/21 15:02:28;;;;;;;;;;;;;;;;;;5109459;27;20441;-78
2022/01/21 15:04:54;;;;;;;;;;;;;;;;;;5127348;27;19919;-78
2022/01/21 15:07:25;;;;;;;;;;;;;;;;;;5126299;27;20011;-78
2022/01/21 15:09:52;;;;;;;;;;;;;;;;;;5125628;27;19916;-78
2022/01/21 15:15:10;;;;;;;;;;;;;;;;;;5127831;27;19919;-78
2022/01/21 15:17:36;;;;;;;;;;;;;;;;;;5126648;27;19923;-78
2022/01/21 15:20:01;;;;;;;;;;;;;;;;;;5126980;27;20002;-78
2022/01/21 15:22:26;;;;;;;;;;;;;;;;;;5128422;27;19916;-78
2022/01/21 15:24:53;;;;;;;;;;;;;;;;;;5125388;27;19916;-78
2022/01/21 15:27:19;;;;;;;;;;;;;;;;;;5128073;27;19916;-78
2022/01/21 15:29:44;;;;;;;;;;;;;;;;;;5125718;27;20264;-78
2022/01/21 15:32:10;;;;;;;;;;;;;;;;;;5127330;27;19923;-78
2022/01/21 15:34:36;;;;;;;;;;;;;;;;;;5125381;27;19976;-78
2022/01/21 15:37:02;;;;;;;;;;;;;;;;;;5127755;27;19968;-78
2022/01/21 15:39:27;;;;;;;;;;;;;;;;;;5126199;27;19941;-78
2022/01/21 15:41:53;;;;;;;;;;;;;;;;;;5105189;27;20005;-78
2022/01/21 15:44:18;;;;;;;;;;;;;;;;;;5127781;27;19984;-77
2022/01/21 15:46:44;;;;;;;;;;;;;;;;;;5109390;27;19919;-78
2022/01/21 15:49:16;;;;;;;;;;;;;;;;;;5117275;27;19919;-78
2022/01/21 15:51:41;;;;;;;;;;;;;;;;;;5118027;27;19922;-78
2022/01/21 15:54:07;;;;;;;;;;;;;;;;;;5136421;27;19919;-78
2022/01/21 15:56:32;;;;;;;;;;;;;;;;;;5118195;27;19951;-78
2022/01/21 15:58:57;;;;;;;;;;;;;;;;;;5137023;27;19923;-78
2022/01/21 16:01:23;;;;;;;;;;;;;;;;;;5135711;27;19919;-78
2022/01/21 16:03:50;;;;;;;;;;;;;;;;;;5135802;27;19915;-78
2022/01/21 16:06:15;;;;;;;;;;;;;;;;;;5132828;27;19940;-78
2022/01/21 16:08:43;;;;;;;;;;;;;;;;;;5116710;28;19911;-78
2022/01/21 16:11:08;;;;;;;;;;;;;;;;;;5116200;28;19982;-78
2022/01/21 16:13:33;;;;;;;;;;;;;;;;;;5116731;28;19919;-78
2022/01/21 16:15:59;;;;;;;;;;;;;;;;;;5116792;28;20014;-78
2022/01/21 16:18:26;;;;;;;;;;;;;;;;;;5127018;27;19923;-78
2022/01/21 16:20:51;;;;;;;;;;;;;;;;;;5136429;27;19919;-78
2022/01/21 16:23:18;;;;;;;;;;;;;;;;;;5136380;27;20356;-78
2022/01/21 16:25:44;;;;;;;;;;;;;;;;;;5136178;27;19923;-78
2022/01/21 16:28:09;;;;;;;;;;;;;;;;;;5136292;27;19919;-78
2022/01/21 16:30:35;;;;;;;;;;;;;;;;;;5117970;28;19919;-78
2022/01/21 16:33:00;;;;;;;;;;;;;;;;;;5136014;28;19915;-78
2022/01/21 16:35:25;;;;;;;;;;;;;;;;;;5135746;28;20321;-78
2022/01/21 16:37:50;;;;;;;;;;;;;;;;;;5135312;27;19915;-78
2022/01/21 16:40:16;;;;;;;;;;;;;;;;;;5136043;28;19919;-78
2022/01/21 16:42:41;;;;;;;;;;;;;;;;;;5136225;28;19930;-78
2022/01/21 16:45:09;;;;;;;;;;;;;;;;;;5136321;28;19916;-77
2022/01/21 16:47:34;;;;;;;;;;;;;;;;;;5136071;27;19933;-79
2022/01/21 16:50:00;;;;;;;;;;;;;;;;;;5135621;28;20007;-79
2022/01/21 16:52:25;;;;;;;;;;;;;;;;;;5137270;28;20002;-79
2022/01/21 16:54:51;;;;;;;;;;;;;;;;;;5117790;28;19915;-77
2022/01/21 16:57:16;;;;;;;;;;;;;;;;;;5136356;28;19916;-77
2022/01/21 16:59:45;;;;;;;;;;;;;;;;;;5099928;28;19915;-77
2022/01/21 17:02:13;;;;;;;;;;;;;;;;;;5116729;28;20466;-78
2022/01/21 17:04:41;;;;;;;;;;;;;;;;;;5099683;28;19968;-76
2022/01/21 17:07:07;;;;;;;;;;;;;;;;;;5136752;28;20118;-78
2022/01/21 17:09:33;;;;;;;;;;;;;;;;;;5118195;28;19916;-78
2022/01/21 17:11:58;;;;;;;;;;;;;;;;;;5119531;28;19922;-78
2022/01/21 17:14:24;;;;;;;;;;;;;;;;;;5120582;28;19919;-79
2022/01/21 17:16:49;;;;;;;;;;;;;;;;;;5118555;28;20300;-77
2022/01/21 17:19:15;;;;;;;;;;;;;;;;;;5117424;28;19915;-77
2022/01/21 17:21:41;;;;;;;;;;;;;;;;;;5116027;28;19964;-78
2022/01/21 17:24:06;;;;;;;;;;;;;;;;;;5135265;28;19965;-78
2022/01/21 17:26:32;;;;;;;;;;;;;;;;;;5119204;28;19916;-78
2022/01/21 17:28:57;;;;;;;;;;;;;;;;;;5137265;27;19922;-78
2022/01/21 17:31:22;;;;;;;;;;;;;;;;;;5137615;28;19921;-78
2022/01/21 17:33:49;;;;;;;;;;;;;;;;;;5136828;28;20276;-79
2022/01/21 17:36:15;;;;;;;;;;;;;;;;;;5136433;27;19920;-78
2022/01/21 17:38:40;;;;;;;;;;;;;;;;;;5138881;27;19926;-78
2022/01/21 17:41:05;;;;;;;;;;;;;;;;;;5120583;27;20006;-78
2022/01/21 17:43:31;;;;;;;;;;;;;;;;;;5139989;27;19915;-78
2022/01/21 17:45:56;;;;;;;;;;;;;;;;;;5120446;27;19916;-78
2022/01/21 17:48:21;;;;;;;;;;;;;;;;;;5120421;27;20257;-78
2022/01/21 17:50:51;;;;;;;;;;;;;;;;;;5137863;27;19974;-78
2022/01/21 17:53:21;;;;;;;;;;;;;;;;;;5139315;27;19923;-78